Terminal Aerodrome Forecast
Issued by NWS

Home | Current Version | Previous Version | Text Only | Print | Product List | Glossary Off
Versions: 1 2 3 4 5 6 7 8 9 10 11 12 13 14 15

000
FTUS43 KTOP 232300
TAFFOE
TAF
KFOE 232324Z 2400/2424 34019G26KT 6SM -RA BR SCT025 OVC035
     FM240400 31016G25KT P6SM BKN035=

USA.gov is the U.S. government's official web portal to all federal, state and local government web resources and services.